KCFD/CFD METAR and TAF weather

Enter ICAO airport designator
Station Type Date Time Source
KCFD METAR 2022/01/25 05:15 UTC NOAA

KCFD 250515Z AUTO 00000KT 1/4SM FG OVC002 08/08 A2993 RMK AO2 T00780078


Station Type Date Time Source
KCFD Decoded METAR 2022/01/25 05:15 UTC NOAA

Station name not available
Jan 25, 2022 - 12:15 AM EST / 2022.01.25 0515 UTC
Wind: Calm:0
Visibility: 1/4 mile(s):0
Sky conditions: overcast
Weather: fog
Temperature: 46.0 F (7.8 C)
Dew Point: 46.0 F (7.8 C)
Relative Humidity: 100%
Pressure (altimeter): 29.93 in. Hg (1013 hPa)
ob: KCFD 250515Z AUTO 00000KT 1/4SM FG OVC002 08/08 A2993 RMK AO2 T00780078
cycle: 5

Station Type Date Time Source
KCFD TAF UTC NOAA

Error!

Example: see airport list